Time;durP1;ratioP1;P1;durP2;ratioP2;P2;SDS_P1;SDS_P2;PMS_P1;PMS_P2;Temp;Humidity;BMP_temperature;BMP_pressure;BME280_temperature;BME280_humidity;BME280_pressure;Samples;Min_cycle;Max_cycle;Signal;HPM_P1;HPM_P2
2022/07/01 00:00:15;;;;;;;8.00;2.28;;;;;;;19.77;43.36;99439.22;5071655;28;20060;-71
2022/07/01 00:02:43;;;;;;;7.68;2.92;;;;;;;19.73;43.23;99433.56;5071955;28;20057;-71
2022/07/01 00:05:10;;;;;;;3.80;2.10;;;;;;;19.71;43.31;99435.97;5071863;28;20135;-71
2022/07/01 00:07:37;;;;;;;7.13;2.28;;;;;;;19.67;43.38;99440.81;5074991;28;20082;-70
2022/07/01 00:10:05;;;;;;;9.90;2.85;;;;;;;19.62;43.37;99441.19;5075361;28;20467;-70
2022/07/01 00:12:32;;;;;;;8.27;2.28;;;;;;;19.59;43.78;99439.16;5075344;28;20055;-70
2022/07/01 00:14:58;;;;;;;8.68;2.83;;;;;;;19.55;43.73;99445.97;5075187;28;20056;-71
2022/07/01 00:17:25;;;;;;;5.78;2.30;;;;;;;19.46;43.89;99435.06;5041109;28;20052;-72
2022/07/01 00:19:52;;;;;;;6.43;2.20;;;;;;;19.47;43.99;99442.31;5057055;28;20048;-71
2022/07/01 00:22:20;;;;;;;7.85;2.58;;;;;;;19.48;44.14;99446.72;5075483;28;20098;-72
2022/07/01 00:24:48;;;;;;;4.57;2.10;;;;;;;19.43;44.30;99446.31;5074946;28;20078;-71
2022/07/01 00:27:15;;;;;;;9.25;2.40;;;;;;;19.40;44.41;99447.91;5075150;28;20040;-72
2022/07/01 00:29:43;;;;;;;8.20;2.40;;;;;;;19.39;44.42;99451.91;5075602;28;20044;-72
2022/07/01 00:32:10;;;;;;;5.45;2.30;;;;;;;19.36;44.64;99452.69;5074730;28;20142;-70
2022/07/01 00:34:37;;;;;;;3.95;2.20;;;;;;;19.38;44.50;99444.66;5074782;28;20052;-70
2022/07/01 00:37:04;;;;;;;4.45;2.38;;;;;;;19.33;44.78;99450.66;5056814;28;20059;-71
2022/07/01 00:39:33;;;;;;;6.80;2.78;;;;;;;19.35;44.88;99445.44;5074925;28;20564;-70
2022/07/01 00:42:01;;;;;;;;;;;;;;;19.26;44.87;99452.59;5075669;28;20093;-70
2022/07/01 00:44:29;;;;;;;4.88;2.20;;;;;;;19.26;45.08;99441.31;5074923;28;19928;-72
2022/07/01 00:47:00;;;;;;;13.57;2.20;;;;;;;19.33;45.13;99447.06;5074944;28;20051;-72
2022/07/01 00:49:27;;;;;;;16.48;2.50;;;;;;;19.30;45.19;99443.00;5056572;28;20079;-73
2022/07/01 00:51:54;;;;;;;6.00;2.03;;;;;;;19.29;45.23;99446.19;5057259;28;20048;-73
2022/07/01 00:54:24;;;;;;;4.68;2.40;;;;;;;19.30;45.33;99445.81;5074690;28;20063;-72
2022/07/01 00:56:51;;;;;;;11.63;2.35;;;;;;;19.29;45.48;99441.38;5074338;28;20049;-73
2022/07/01 00:59:18;;;;;;;6.57;2.30;;;;;;;19.22;45.55;99438.47;5074449;28;20527;-74
2022/07/01 01:01:45;;;;;;;5.68;2.65;;;;;;;19.15;45.70;99440.44;5074579;28;20051;-70
2022/07/01 01:04:12;;;;;;;4.03;2.05;;;;;;;19.11;46.11;99446.06;5074451;28;20052;-70
2022/07/01 01:06:40;;;;;;;8.02;3.10;;;;;;;19.13;45.94;99443.63;5074407;28;20106;-71
2022/07/01 01:09:07;;;;;;;7.72;2.50;;;;;;;19.09;46.14;99437.16;5057671;28;20044;-70
2022/07/01 01:11:35;;;;;;;14.00;3.00;;;;;;;19.03;46.21;99447.19;5054135;28;20053;-70
2022/07/01 01:14:02;;;;;;;6.97;2.35;;;;;;;19.03;46.00;99437.91;5053899;28;20094;-70
2022/07/01 01:16:29;;;;;;;5.15;2.30;;;;;;;18.98;46.36;99438.31;5035856;28;20543;-70
2022/07/01 01:18:56;;;;;;;4.28;2.28;;;;;;;19.01;46.18;99449.59;5054004;28;20061;-71
2022/07/01 01:21:23;;;;;;;6.75;2.10;;;;;;;19.08;46.12;99452.47;5052623;28;20156;-71
2022/07/01 01:23:50;;;;;;;5.60;2.20;;;;;;;19.10;46.08;99450.06;5054108;28;20122;-71
2022/07/01 01:26:20;;;;;;;8.32;2.20;;;;;;;19.12;46.00;99442.03;5036169;28;20563;-71
2022/07/01 01:28:48;;;;;;;7.70;2.15;;;;;;;19.11;45.97;99446.06;5054342;28;20053;-71
2022/07/01 01:31:15;;;;;;;6.13;2.75;;;;;;;19.10;45.90;99450.06;5053932;28;20055;-72
2022/07/01 01:33:44;;;;;;;5.28;3.63;;;;;;;19.14;45.98;99459.38;5036405;28;20045;-71
2022/07/01 01:36:11;;;;;;;3.38;2.13;;;;;;;19.19;45.87;99449.75;5064492;28;20055;-70
2022/07/01 01:38:38;;;;;;;4.38;2.35;;;;;;;19.19;46.05;99450.53;5073754;28;20049;-70
2022/07/01 01:41:05;;;;;;;7.75;2.50;;;;;;;19.13;46.11;99454.13;5073333;28;20054;-71
2022/07/01 01:43:35;;;;;;;5.40;2.10;;;;;;;19.08;46.18;99458.13;5073930;28;20053;-71
2022/07/01 01:46:03;;;;;;;5.88;2.20;;;;;;;19.07;46.38;99464.94;5073337;28;20056;-69
2022/07/01 01:48:31;;;;;;;3.72;2.20;;;;;;;19.04;46.21;99465.72;5073573;28;20048;-74
2022/07/01 01:50:58;;;;;;;5.28;1.90;;;;;;;19.04;46.08;99465.72;5073464;28;20052;-74
2022/07/01 01:53:25;;;;;;;4.30;2.28;;;;;;;19.03;46.29;99461.28;5073500;28;20045;-74
2022/07/01 01:55:53;;;;;;;6.28;3.42;;;;;;;19.07;46.31;99464.94;5073205;28;20048;-69
2022/07/01 01:58:20;;;;;;;6.20;1.90;;;;;;;19.06;46.29;99460.50;5073359;28;20507;-69
2022/07/01 02:00:47;;;;;;;3.88;2.08;;;;;;;19.00;46.21;99450.81;5073409;28;20053;-68
2022/07/01 02:03:14;;;;;;;4.25;2.28;;;;;;;19.01;46.53;99462.91;5073367;28;20414;-73
2022/07/01 02:05:41;;;;;;;4.22;2.10;;;;;;;18.95;46.69;99461.63;5073076;28;20079;-75
2022/07/01 02:08:13;;;;;;;9.40;2.53;;;;;;;19.00;46.56;99453.63;5073084;28;20052;-73
2022/07/01 02:10:40;;;;;;;6.28;2.28;;;;;;;19.03;46.13;99468.94;5073114;28;20083;-73
2022/07/01 02:13:07;;;;;;;8.63;2.58;;;;;;;19.05;46.09;99466.53;5073254;28;20052;-73
2022/07/01 02:15:35;;;;;;;5.60;1.95;;;;;;;19.02;46.10;99465.31;5073116;28;20055;-75
2022/07/01 02:18:02;;;;;;;4.47;2.08;;;;;;;19.03;46.17;99466.13;5073034;28;20448;-73
2022/07/01 02:20:29;;;;;;;4.90;2.15;;;;;;;19.03;46.01;99472.56;5072906;28;20113;-73
2022/07/01 02:22:56;;;;;;;3.58;1.75;;;;;;;19.02;45.96;99465.31;5072988;28;20571;-74
2022/07/01 02:25:23;;;;;;;5.28;2.17;;;;;;;19.04;45.95;99470.56;5054679;28;20094;-74
2022/07/01 02:27:50;;;;;;;5.13;1.80;;;;;;;19.07;45.91;99472.63;5072817;28;20095;-74
2022/07/01 02:30:17;;;;;;;6.63;1.92;;;;;;;19.13;45.51;99471.06;5037927;28;20131;-74
2022/07/01 02:32:44;;;;;;;8.45;2.10;;;;;;;19.11;45.50;99465.81;5072979;28;20538;-74
2022/07/01 02:35:11;;;;;;;8.27;2.00;;;;;;;19.10;45.43;99464.16;5072861;28;20545;-74
2022/07/01 02:37:37;;;;;;;7.43;2.80;;;;;;;19.11;45.35;99468.63;5072877;28;20051;-74
2022/07/01 02:40:05;;;;;;;5.32;1.58;;;;;;;19.15;44.80;99477.91;5072540;28;20063;-74
2022/07/01 02:42:35;;;;;;;4.43;1.98;;;;;;;19.17;44.62;99485.97;5072747;28;20048;-74
2022/07/01 02:45:03;;;;;;;;;;;;;;;19.12;44.48;99497.59;5073087;28;20135;-74
2022/07/01 02:47:38;;;;;;;3.55;1.45;;;;;;;19.23;44.03;99493.69;5072641;28;19931;-73
2022/07/01 02:50:10;;;;;;;3.13;1.90;;;;;;;19.28;43.87;99507.47;5072636;28;20040;-74
2022/07/01 02:52:38;;;;;;;16.23;2.30;;;;;;;19.26;43.53;99507.00;5072635;28;20049;-74
2022/07/01 02:55:08;;;;;;;3.20;1.90;;;;;;;19.28;43.23;99513.13;5072677;28;20135;-74
2022/07/01 02:57:37;;;;;;;3.83;1.77;;;;;;;19.31;43.17;99512.34;5054881;28;20049;-74
2022/07/01 03:00:07;;;;;;;4.35;2.35;;;;;;;19.35;42.71;99510.34;5072562;28;20131;-73
2022/07/01 03:02:35;;;;;;;3.65;1.70;;;;;;;19.31;42.64;99517.97;5072568;28;20079;-74
2022/07/01 03:05:03;;;;;;;4.15;1.77;;;;;;;19.31;42.07;99515.16;5072404;28;20146;-75
2022/07/01 03:07:30;;;;;;;6.55;1.85;;;;;;;19.22;42.18;99520.25;5071905;28;20495;-74
2022/07/01 03:09:57;;;;;;;4.78;1.80;;;;;;;19.14;42.18;99512.97;5054144;28;20049;-74
2022/07/01 03:12:24;;;;;;;7.57;2.10;;;;;;;19.16;42.06;99521.81;5072713;28;20056;-72
2022/07/01 03:14:52;;;;;;;3.50;1.90;;;;;;;19.20;42.12;99531.13;5072253;28;20053;-74
2022/07/01 03:17:20;;;;;;;3.88;1.90;;;;;;;19.17;42.19;99528.28;5072105;28;20045;-74
2022/07/01 03:19:47;;;;;;;3.90;1.80;;;;;;;19.21;42.04;99538.38;5072299;28;20533;-74
2022/07/01 03:22:14;;;;;;;9.32;1.98;;;;;;;19.22;41.70;99534.34;5072304;28;20135;-73
2022/07/01 03:24:41;;;;;;;4.18;1.92;;;;;;;19.14;42.00;99529.88;5071992;28;20051;-74
2022/07/01 03:27:08;;;;;;;9.50;2.17;;;;;;;19.22;41.73;99537.19;5072230;28;20076;-74
2022/07/01 03:29:36;;;;;;;3.08;1.70;;;;;;;19.24;41.57;99536.78;5072259;28;20050;-73
2022/07/01 03:32:03;;;;;;;6.85;1.70;;;;;;;19.16;41.42;99533.09;5072427;28;20464;-71
2022/07/01 03:34:30;;;;;;;2.50;1.30;;;;;;;19.27;40.92;99538.91;5071900;28;20055;-70
2022/07/01 03:36:57;;;;;;;6.25;1.80;;;;;;;19.35;40.63;99534.91;5072225;28;20047;-75
2022/07/01 03:39:24;;;;;;;8.25;1.45;;;;;;;19.46;39.97;99539.44;5071891;28;20088;-74
2022/07/01 03:41:50;;;;;;;4.35;1.70;;;;;;;19.59;39.75;99540.75;5075892;28;20052;-74
2022/07/01 03:44:17;;;;;;;4.80;1.40;;;;;;;19.70;39.45;99535.16;5075921;28;20048;-75
2022/07/01 03:46:44;;;;;;;8.90;1.83;;;;;;;19.82;39.22;99544.13;5075944;28;20412;-73
2022/07/01 03:49:11;;;;;;;8.93;1.65;;;;;;;19.95;38.87;99545.41;5076155;28;20098;-73
2022/07/01 03:51:38;;;;;;;6.25;2.05;;;;;;;20.12;38.79;99540.22;5076061;28;20052;-74
2022/07/01 03:56:51;;;;;;;4.75;1.50;;;;;;;20.35;37.85;99555.72;5075462;28;20044;-74
2022/07/01 03:59:18;;;;;;;11.63;1.75;;;;;;;20.44;37.57;99563.81;5075639;28;20059;-75
2022/07/01 04:01:45;;;;;;;6.57;1.70;;;;;;;20.53;37.57;99552.94;5075335;28;20098;-73
2022/07/01 04:04:12;;;;;;;9.98;1.70;;;;;;;20.59;37.55;99559.84;5076021;28;20423;-74
2022/07/01 04:06:39;;;;;;;3.65;1.58;;;;;;;20.68;37.48;99546.13;5075260;28;20052;-74
2022/07/01 04:09:07;;;;;;;2.47;1.30;;;;;;;20.75;36.98;99557.47;5075219;28;20053;-74
2022/07/01 04:11:33;;;;;;;4.65;1.30;;;;;;;20.90;36.69;99559.13;5075588;28;20059;-73
2022/07/01 04:14:01;;;;;;;4.60;1.48;;;;;;;20.95;36.55;99568.03;5075364;28;20055;-74
2022/07/01 04:16:28;;;;;;;3.90;1.60;;;;;;;21.03;36.36;99578.16;5075167;28;20132;-73
2022/07/01 04:18:55;;;;;;;9.30;1.77;;;;;;;21.04;35.95;99574.13;5075334;28;20396;-75
2022/07/01 04:24:08;;;;;;;3.80;1.15;;;;;;;20.92;35.14;99580.13;5075005;28;20072;-74
2022/07/01 04:26:35;;;;;;;7.30;1.20;;;;;;;21.02;34.49;99589.88;5075172;28;20083;-73
2022/07/01 04:29:04;;;;;;;4.25;1.33;;;;;;;20.93;34.48;99593.06;5074863;28;20504;-74
2022/07/01 04:31:31;;;;;;;3.15;1.30;;;;;;;20.99;34.43;99579.38;5075093;28;20098;-75
2022/07/01 04:33:58;;;;;;;5.07;1.25;;;;;;;21.06;34.07;99577.38;5075113;28;20507;-72
2022/07/01 04:36:26;;;;;;;3.08;1.92;;;;;;;21.26;33.67;99577.78;5074509;28;20083;-74
2022/07/01 04:38:53;;;;;;;2.35;1.30;;;;;;;21.47;33.09;99591.97;5074712;28;20045;-74
2022/07/01 04:44:05;;;;;;;4.75;1.15;;;;;;;21.93;32.06;99584.25;5074378;28;20049;-74
2022/07/01 04:46:37;;;;;;;4.88;1.33;;;;;;;22.15;32.12;99587.84;5074682;28;20037;-74
2022/07/01 04:49:05;;;;;;;4.30;2.03;;;;;;;22.18;31.77;99587.84;5074636;28;20512;-75
2022/07/01 04:51:34;;;;;;;1.92;1.02;;;;;;;22.26;31.86;99592.25;5074132;28;20050;-75
2022/07/01 04:54:06;;;;;;;7.82;1.50;;;;;;;22.32;31.46;99593.47;5075133;28;20049;-74
2022/07/01 04:56:36;;;;;;;6.97;1.10;;;;;;;22.32;31.29;99601.97;5074888;28;20052;-76
2022/07/01 04:59:10;;;;;;;6.43;1.83;;;;;;;22.57;30.71;99587.72;5074178;28;20052;-75
2022/07/01 05:01:36;;;;;;;2.05;1.10;;;;;;;22.88;30.21;99587.56;5074567;28;20134;-71
2022/07/01 05:04:04;;;;;;;16.67;1.35;;;;;;;23.12;29.49;99600.81;5074455;28;20143;-72
2022/07/01 05:06:31;;;;;;;4.60;1.20;;;;;;;23.39;29.10;99610.38;5074457;28;20131;-72
2022/07/01 05:08:58;;;;;;;2.08;0.88;;;;;;;23.67;28.92;99597.19;5073140;28;20047;-72
2022/07/01 05:11:25;;;;;;;6.32;1.00;;;;;;;23.95;28.50;99594.91;5057899;28;20151;-71
2022/07/01 05:13:52;;;;;;;6.45;1.50;;;;;;;23.85;28.33;99600.66;5083243;28;20135;-71
2022/07/01 05:16:19;;;;;;;8.38;1.23;;;;;;;23.72;28.57;99597.56;5050986;28;20040;-71
2022/07/01 05:24:32;;;;;;;2.88;1.00;;;;;;;23.71;28.42;99597.97;5054713;28;20125;-71
2022/07/01 05:27:01;;;;;;;2.40;1.10;;;;;;;23.78;28.38;99597.91;5073760;28;20543;-71
2022/07/01 05:29:28;;;;;;;3.92;0.85;;;;;;;24.04;28.18;99592.38;5073569;28;20099;-71
2022/07/01 05:31:56;;;;;;;6.65;1.00;;;;;;;24.23;27.76;99588.94;5072391;28;20420;-72
2022/07/01 05:34:25;;;;;;;6.53;0.93;;;;;;;24.45;27.40;99586.66;5071267;28;20119;-71
2022/07/01 05:36:52;;;;;;;9.23;1.30;;;;;;;24.50;27.11;99583.34;5071683;28;20526;-71
2022/07/01 05:39:19;;;;;;;7.88;1.45;;;;;;;24.78;26.81;99583.81;5072805;28;20142;-70
2022/07/01 05:41:46;;;;;;;13.30;10.25;;;;;;;24.69;26.59;99585.59;5072965;28;20052;-71
2022/07/01 05:44:13;;;;;;;3.03;1.40;;;;;;;24.67;26.96;99599.41;5073454;28;20052;-72
2022/07/01 05:46:40;;;;;;;2.47;0.90;;;;;;;24.66;26.98;99598.59;5073071;28;20048;-71
2022/07/01 05:49:07;;;;;;;5.40;1.35;;;;;;;24.67;26.89;99594.53;5071202;28;20043;-71
2022/07/01 05:51:40;;;;;;;4.53;0.85;;;;;;;24.83;26.32;99588.22;5071737;28;20052;-70
2022/07/01 05:54:07;;;;;;;4.07;1.20;;;;;;;25.05;26.49;99593.19;5068820;28;20127;-71
2022/07/01 05:56:34;;;;;;;4.15;1.10;;;;;;;25.13;26.03;99593.88;5071690;28;20423;-71
2022/07/01 05:59:01;;;;;;;4.43;1.10;;;;;;;25.03;26.20;99592.81;5073407;28;20079;-71
2022/07/01 06:01:28;;;;;;;2.80;0.93;;;;;;;25.00;26.38;99587.19;5073218;28;20072;-72
2022/07/01 06:03:55;;;;;;;3.00;0.90;;;;;;;25.15;25.61;99597.13;5073259;28;20076;-71
2022/07/01 06:06:22;;;;;;;3.75;1.10;;;;;;;25.10;25.98;99598.41;5072914;28;20040;-71
2022/07/01 06:08:49;;;;;;;2.67;1.35;;;;;;;25.46;25.42;99600.75;5072879;28;20072;-70
2022/07/01 06:11:16;;;;;;;14.13;1.20;;;;;;;26.16;24.68;99596.69;5073019;28;20144;-71
2022/07/01 06:13:43;;;;;;;4.38;1.20;;;;;;;27.35;23.58;99590.56;5073107;28;20066;-70
2022/07/01 06:16:10;;;;;;;14.68;1.40;;;;;;;29.24;21.18;99593.09;5073049;28;20049;-71
2022/07/01 06:18:37;;;;;;;8.57;1.33;;;;;;;32.50;17.30;99589.25;5073142;28;20131;-71
2022/07/01 06:21:04;;;;;;;8.82;1.13;;;;;;;34.05;15.90;99582.59;5072800;28;20044;-70
2022/07/01 06:23:31;;;;;;;3.22;0.98;;;;;;;33.53;15.64;99591.81;5072695;28;20056;-72
2022/07/01 06:25:58;;;;;;;7.22;1.58;;;;;;;32.36;16.86;99589.91;5072630;28;20535;-71
2022/07/01 06:28:29;;;;;;;1.95;1.00;;;;;;;31.55;17.90;99586.78;5072870;28;20044;-72
2022/07/01 06:30:57;;;;;;;11.30;1.17;;;;;;;29.78;18.34;99594.59;5072561;28;20515;-71
2022/07/01 06:33:30;;;;;;;9.80;1.20;;;;;;;28.90;19.13;99593.72;5072899;28;20492;-72
2022/07/01 06:35:57;;;;;;;3.13;1.17;;;;;;;28.89;19.16;99602.78;5072469;28;20074;-71
2022/07/01 06:38:25;;;;;;;1.90;0.95;;;;;;;27.97;20.01;99593.06;5054892;28;20037;-71
2022/07/01 06:43:43;;;;;;;6.50;1.10;;;;;;;26.95;20.97;99606.13;5072664;28;20535;-70
2022/07/01 06:46:10;;;;;;;9.32;1.00;;;;;;;26.46;21.29;99614.44;5072226;28;20060;-71
2022/07/01 06:48:38;;;;;;;10.02;1.13;;;;;;;26.26;21.90;99605.03;5072514;28;20040;-71
2022/07/01 06:51:05;;;;;;;4.40;1.13;;;;;;;27.11;20.93;99609.03;5072290;28;20056;-70
2022/07/01 06:53:32;;;;;;;10.70;1.30;;;;;;;27.97;19.59;99605.31;5055202;28;20449;-71
2022/07/01 06:55:59;;;;;;;13.50;1.20;;;;;;;29.97;17.28;99615.69;5072254;28;20084;-72
2022/07/01 06:58:26;;;;;;;32.38;1.77;;;;;;;33.15;14.02;99611.78;5072329;28;20507;-70
2022/07/01 07:00:55;;;;;;;4.03;0.90;;;;;;;36.13;11.23;99618.88;5072520;28;20048;-70
2022/07/01 07:03:22;;;;;;;6.47;1.00;;;;;;;39.18;9.23;99626.84;5072482;28;20053;-70
2022/07/01 07:05:49;;;;;;;5.22;1.15;;;;;;;40.97;7.86;99621.06;5072256;28;20052;-71
2022/07/01 07:08:16;;;;;;;5.00;1.17;;;;;;;42.97;7.07;99624.50;5072245;28;20569;-71
2022/07/01 07:10:43;;;;;;;7.18;0.95;;;;;;;43.43;6.60;99629.19;5072635;28;20139;-70
2022/07/01 07:13:10;;;;;;;5.88;0.95;;;;;;;44.05;6.49;99627.63;5072361;28;20139;-71
2022/07/01 07:15:41;;;;;;;3.80;1.35;;;;;;;45.62;5.73;99632.03;5073971;28;20052;-70
2022/07/01 07:18:08;;;;;;;50.28;24.42;;;;;;;46.65;5.08;99628.22;5077011;28;20043;-70
2022/07/01 07:20:35;;;;;;;13.77;1.30;;;;;;;45.68;5.13;99623.03;5076721;28;20512;-70
2022/07/01 07:23:03;;;;;;;8.40;1.33;;;;;;;46.48;4.79;99630.81;5076507;28;20410;-71
2022/07/01 07:25:33;;;;;;;3.95;1.08;;;;;;;47.31;4.42;99632.09;5076142;28;20074;-71
2022/07/01 07:28:00;;;;;;;3.75;1.38;;;;;;;48.32;4.12;99634.03;5057944;28;20044;-71
2022/07/01 07:30:27;;;;;;;6.28;1.50;;;;;;;48.70;4.15;99638.53;5076678;28;20062;-70
2022/07/01 07:32:54;;;;;;;2.95;1.10;;;;;;;49.00;3.64;99631.72;5076264;28;20411;-72
2022/07/01 07:35:27;;;;;;;8.23;1.27;;;;;;;49.56;3.47;99636.19;5075716;28;20055;-68
2022/07/01 07:37:54;;;;;;;2.08;1.05;;;;;;;50.88;3.10;99631.09;5076122;28;20048;-70
2022/07/01 07:40:22;;;;;;;2.53;1.25;;;;;;;51.55;2.73;99627.91;5075584;28;20062;-70
2022/07/01 07:42:49;;;;;;;12.07;4.57;;;;;;;50.84;2.78;99632.94;5075773;28;20117;-70
2022/07/01 07:45:16;;;;;;;5.13;1.30;;;;;;;51.20;2.79;99639.03;5076186;28;20068;-69
2022/07/01 07:47:54;;;;;;;3.38;1.10;;;;;;;51.42;2.71;99632.03;5076066;28;20094;-69
2022/07/01 07:50:22;;;;;;;4.93;1.30;;;;;;;51.24;2.74;99639.41;5075825;28;20052;-72
2022/07/01 07:52:49;;;;;;;12.35;1.52;;;;;;;52.20;2.18;99647.47;5075863;28;20483;-71
2022/07/01 07:55:16;;;;;;;;;;;;;;;52.58;2.12;99641.63;5076094;28;20048;-72
2022/07/01 07:57:43;;;;;;;8.02;1.30;;;;;;;53.45;1.72;99646.19;5076114;28;19969;-72
2022/07/01 08:00:12;;;;;;;6.70;1.10;;;;;;;53.19;2.30;99652.34;5075702;28;20079;-69
2022/07/01 08:02:41;;;;;;;5.38;1.40;;;;;;;53.29;2.13;99653.13;5075514;28;20144;-68
2022/07/01 08:05:11;;;;;;;10.75;2.55;;;;;;;53.37;1.76;99656.72;5075616;28;20048;-69
2022/07/01 08:07:40;;;;;;;9.77;1.40;;;;;;;53.73;1.54;99650.53;5075345;28;20052;-69
2022/07/01 08:10:09;;;;;;;6.13;1.77;;;;;;;54.18;1.80;99658.38;5075626;28;20056;-68
2022/07/01 08:12:37;;;;;;;4.78;1.60;;;;;;;54.08;1.18;99654.66;5075451;28;20415;-67
2022/07/01 08:15:05;;;;;;;4.78;1.45;;;;;;;54.53;1.42;99659.47;5075358;28;20047;-69
2022/07/01 08:17:32;;;;;;;1.85;1.20;;;;;;;55.43;1.14;99662.84;5075423;28;20064;-69
2022/07/01 08:19:59;;;;;;;8.02;1.48;;;;;;;56.19;0.91;99666.41;5075306;28;20049;-69
2022/07/01 08:22:27;;;;;;;6.05;1.60;;;;;;;56.02;0.86;99660.81;5075352;28;20595;-68
2022/07/01 08:24:54;;;;;;;7.65;1.58;;;;;;;55.00;0.91;99661.34;5076130;28;20047;-68
2022/07/01 08:27:21;;;;;;;5.53;1.52;;;;;;;54.82;0.71;99668.25;5073591;28;20087;-72
2022/07/01 08:29:48;;;;;;;5.35;1.48;;;;;;;55.00;0.78;99673.28;5075004;28;20052;-71
2022/07/01 08:32:15;;;;;;;2.55;1.30;;;;;;;56.17;0.47;99675.25;5075189;28;20515;-72
2022/07/01 08:34:42;;;;;;;7.53;1.45;;;;;;;57.02;0.21;99682.19;5075013;28;20083;-71
2022/07/01 08:37:09;;;;;;;6.88;1.30;;;;;;;56.58;0.00;99673.44;5074848;28;20071;-71
2022/07/01 08:39:36;;;;;;;2.63;1.40;;;;;;;55.90;0.37;99674.94;5074818;28;20543;-72
2022/07/01 08:42:09;;;;;;;5.00;1.65;;;;;;;55.71;0.44;99675.13;5074989;28;20055;-71
2022/07/01 08:44:37;;;;;;;12.23;1.60;;;;;;;55.75;0.33;99675.44;5074603;28;20072;-69
2022/07/01 08:47:04;;;;;;;8.05;1.95;;;;;;;56.73;0.02;99670.69;5074845;28;20055;-70
2022/07/01 08:49:31;;;;;;;5.55;1.58;;;;;;;56.44;0.37;99669.53;5074372;28;20051;-71
2022/07/01 08:51:58;;;;;;;10.45;2.15;;;;;;;56.86;0.16;99676.00;5074690;28;20082;-71
2022/07/01 08:54:25;;;;;;;9.27;1.80;;;;;;;57.64;0.01;99683.00;5074628;28;20053;-71
2022/07/01 08:56:52;;;;;;;2.55;1.60;;;;;;;57.50;0.02;99685.13;5074414;28;20139;-71
2022/07/01 08:59:32;;;;;;;5.63;1.92;;;;;;;57.27;0.10;99679.28;5074157;28;20050;-71
2022/07/01 09:02:04;;;;;;;6.43;1.80;;;;;;;57.16;0.10;99680.06;5074163;28;20123;-70
2022/07/01 09:04:33;;;;;;;8.23;2.03;;;;;;;56.48;0.20;99670.59;5074382;28;20079;-71
2022/07/01 09:07:09;;;;;;;11.02;2.28;;;;;;;57.16;0.04;99668.09;5074144;28;20110;-71
2022/07/01 09:09:38;;;;;;;7.05;1.70;;;;;;;57.01;0.21;99668.69;5074604;28;20041;-73
2022/07/01 09:12:06;;;;;;;5.25;2.05;;;;;;;56.03;0.48;99672.13;5074275;28;20078;-73
2022/07/01 09:14:34;;;;;;;9.60;2.00;;;;;;;56.52;0.11;99664.09;5074291;28;20139;-75
2022/07/01 09:17:04;;;;;;;7.88;1.90;;;;;;;57.39;0.14;99677.00;5074273;28;20052;-74
2022/07/01 09:19:37;;;;;;;5.22;1.80;;;;;;;56.60;0.39;99674.34;5074158;28;20044;-74
2022/07/01 09:22:17;;;;;;;4.47;1.90;;;;;;;56.27;0.57;99675.88;5074198;28;20048;-74
2022/07/01 09:24:44;;;;;;;9.25;1.90;;;;;;;57.52;0.04;99682.28;5074166;28;20139;-74
2022/07/01 09:27:13;;;;;;;4.35;1.83;;;;;;;58.92;0.01;99683.53;5074092;28;20070;-74
2022/07/01 09:29:46;;;;;;;3.97;1.83;;;;;;;58.78;0.00;99667.00;5074013;28;20061;-73
2022/07/01 09:32:17;;;;;;;13.02;2.47;;;;;;;59.21;0.00;99679.84;5073685;28;20046;-71
2022/07/01 09:34:50;;;;;;;9.35;2.30;;;;;;;59.57;0.00;99675.72;5073577;28;20512;-71
2022/07/01 09:37:24;;;;;;;3.97;1.80;;;;;;;59.62;0.00;99680.47;5074405;28;20511;-71
2022/07/01 09:39:54;;;;;;;9.35;1.63;;;;;;;56.58;0.29;99662.22;5073448;28;20052;-71
2022/07/01 09:42:23;;;;;;;6.38;1.48;;;;;;;50.17;2.16;99678.81;5056344;28;20118;-70
2022/07/01 09:45:10;;;;;;;6.68;1.20;;;;;;;43.64;4.37;99671.22;5073430;28;20044;-71
2022/07/01 09:47:40;;;;;;;;;;;;;;;40.09;5.57;99665.06;5074316;28;20063;-71
2022/07/01 09:50:08;;;;;;;5.90;0.88;;;;;;;38.12;7.02;99661.75;5065597;28;20442;-71
2022/07/01 09:52:36;;;;;;;1.70;1.08;;;;;;;36.39;7.83;99669.09;5053276;28;20500;-69
2022/07/01 09:55:08;;;;;;;7.25;1.00;;;;;;;34.67;8.96;99666.44;5053182;28;20071;-70
2022/07/01 09:57:36;;;;;;;2.15;0.93;;;;;;;33.09;9.21;99675.06;5065610;28;20135;-70
2022/07/01 10:00:04;;;;;;;4.30;0.90;;;;;;;32.07;10.00;99672.19;5073475;28;20075;-72
2022/07/01 10:02:33;;;;;;;;;;;;;;;31.26;10.23;99681.19;5073719;28;20071;-69
2022/07/01 10:05:06;;;;;;;8.25;0.85;;;;;;;30.25;11.09;99677.88;5073243;28;19973;-70
2022/07/01 10:07:41;;;;;;;7.38;1.25;;;;;;;29.39;11.84;99678.19;5072831;28;20056;-70
2022/07/01 10:10:24;;;;;;;7.43;1.05;;;;;;;29.15;12.28;99676.88;5072976;28;20044;-70
2022/07/01 10:12:55;;;;;;;4.18;0.75;;;;;;;29.01;12.77;99671.53;5072762;28;20062;-70
2022/07/01 10:15:23;;;;;;;12.43;1.90;;;;;;;28.62;12.81;99680.44;5072802;28;20519;-72
2022/07/01 10:17:52;;;;;;;3.92;0.90;;;;;;;28.05;12.92;99668.88;5073130;28;20504;-71
2022/07/01 10:20:25;;;;;;;89.03;2.72;;;;;;;27.67;13.66;99662.03;5055201;28;20127;-71
2022/07/01 10:23:01;;;;;;;2.63;1.13;;;;;;;27.23;13.99;99668.34;5072833;28;20052;-70
2022/07/01 10:25:43;;;;;;;4.30;1.00;;;;;;;27.03;15.08;99664.69;5072892;28;20045;-70
2022/07/01 10:28:13;;;;;;;4.20;1.20;;;;;;;26.79;16.67;99664.75;5072797;28;20056;-70
2022/07/01 10:31:04;;;;;;;3.55;1.20;;;;;;;26.70;16.79;99675.97;5072706;28;20626;-70
2022/07/01 10:33:49;;;;;;;12.00;1.48;;;;;;;26.56;16.64;99675.41;5072900;28;20151;-71
2022/07/01 10:36:22;;;;;;;6.07;1.40;;;;;;;26.31;16.38;99686.47;5053132;28;20052;-71
2022/07/01 10:39:08;;;;;;;3.88;1.20;;;;;;;26.09;16.47;99686.06;5073184;28;20040;-70
2022/07/01 10:41:55;;;;;;;5.97;1.00;;;;;;;25.99;16.89;99687.03;5072960;28;20056;-70
2022/07/01 10:45:11;;;;;;;167.57;5.40;;;;;;;25.98;16.41;99679.72;5072238;28;20056;-71
2022/07/01 10:47:40;;;;;;;4.50;1.25;;;;;;;26.05;16.27;99679.59;5072666;28;20101;-71
2022/07/01 10:50:09;;;;;;;3.90;1.27;;;;;;;26.09;16.50;99686.06;5071997;28;20515;-71
2022/07/01 10:52:38;;;;;;;5.40;1.15;;;;;;;26.09;16.03;99683.19;5072336;28;20128;-71
2022/07/01 10:55:07;;;;;;;4.75;0.88;;;;;;;26.04;16.38;99680.84;5072574;28;20076;-69
2022/07/01 10:57:41;;;;;;;2.97;1.25;;;;;;;26.00;16.74;99680.09;5072340;28;20102;-70
2022/07/01 11:00:08;;;;;;;5.70;1.30;;;;;;;26.01;16.35;99673.16;5072363;28;20052;-70
2022/07/01 11:02:37;;;;;;;4.35;1.10;;;;;;;25.94;16.42;99678.13;5072313;28;20091;-71
2022/07/01 11:05:09;;;;;;;9.88;1.48;;;;;;;25.96;16.76;99665.03;5072550;28;20048;-70
2022/07/01 11:07:42;;;;;;;3.35;1.17;;;;;;;25.87;16.45;99670.50;5072672;28;20048;-70
2022/07/01 11:10:12;;;;;;;8.68;1.35;;;;;;;25.56;16.99;99668.97;5072488;28;20059;-71
2022/07/01 11:12:40;;;;;;;10.00;1.70;;;;;;;25.56;16.85;99671.81;5072407;28;20064;-70
2022/07/01 11:15:10;;;;;;;4.13;1.40;;;;;;;25.58;16.77;99672.16;5072130;28;20443;-71
2022/07/01 11:17:49;;;;;;;4.50;1.45;;;;;;;25.39;16.97;99664.34;5072444;28;20060;-68
2022/07/01 11:20:16;;;;;;;6.25;1.63;;;;;;;25.45;16.67;99667.50;5071958;28;20504;-69
2022/07/01 11:22:49;;;;;;;7.90;1.20;;;;;;;25.44;16.75;99655.31;5054555;28;20415;-69
2022/07/01 11:25:18;;;;;;;5.47;1.30;;;;;;;25.34;17.07;99664.81;5072085;28;20083;-68
2022/07/01 11:27:47;;;;;;;2.55;1.25;;;;;;;25.19;16.87;99671.13;5072541;28;20041;-69
2022/07/01 11:30:18;;;;;;;5.72;1.10;;;;;;;25.09;16.82;99667.97;5069154;28;20411;-70
2022/07/01 11:32:53;;;;;;;3.33;1.15;;;;;;;25.03;16.38;99674.56;5082410;28;20525;-69
2022/07/01 11:41:17;;;;;;;9.52;1.35;;;;;;;25.07;16.16;99664.75;5070159;28;20056;-74
2022/07/01 11:43:44;;;;;;;4.57;1.30;;;;;;;25.12;16.49;99672.00;5070800;28;20086;-72
2022/07/01 11:46:11;;;;;;;2.75;1.08;;;;;;;25.02;16.49;99678.66;5067703;28;20143;-70
2022/07/01 11:48:39;;;;;;;2.30;1.13;;;;;;;24.93;15.85;99678.38;5067856;28;20040;-73
2022/07/01 11:51:12;;;;;;;17.20;1.75;;;;;;;24.81;15.89;99696.00;5050172;28;20044;-70
2022/07/01 11:53:48;;;;;;;6.00;1.08;;;;;;;24.74;15.97;99696.06;5070583;28;20044;-68
2022/07/01 11:56:17;;;;;;;12.82;1.13;;;;;;;24.80;16.19;99691.53;5067092;28;20160;-69
2022/07/01 11:58:45;;;;;;;5.75;1.42;;;;;;;24.79;16.43;99682.19;5070816;28;20053;-69
2022/07/01 12:01:23;;;;;;;13.00;1.30;;;;;;;24.72;16.44;99690.00;5069531;28;20241;-71
2022/07/01 12:03:50;;;;;;;2.85;1.15;;;;;;;24.66;16.45;99688.84;5070675;28;20448;-72
2022/07/01 12:06:19;;;;;;;110.72;38.65;;;;;;;24.60;16.12;99699.06;5055825;28;20064;-72